sensor_id;sensor_type;location;lat;lon;timestamp;P1;durP1;ratioP1;P2;durP2;ratioP2
23884;SDS011;12123;53.088;7.392;2022-12-18T00:02:14;151.10;;;47.47;;
23884;SDS011;12123;53.088;7.392;2022-12-18T00:04:42;144.70;;;45.08;;
23884;SDS011;12123;53.088;7.392;2022-12-18T00:07:09;151.00;;;46.30;;
23884;SDS011;12123;53.088;7.392;2022-12-18T00:09:36;140.32;;;43.63;;
23884;SDS011;12123;53.088;7.392;2022-12-18T00:12:05;145.73;;;44.65;;
23884;SDS011;12123;53.088;7.392;2022-12-18T00:14:40;140.25;;;42.42;;
23884;SDS011;12123;53.088;7.392;2022-12-18T00:17:08;144.20;;;44.92;;
23884;SDS011;12123;53.088;7.392;2022-12-18T00:19:35;132.70;;;43.42;;
23884;SDS011;12123;53.088;7.392;2022-12-18T00:22:02;132.27;;;41.47;;
23884;SDS011;12123;53.088;7.392;2022-12-18T00:24:29;155.65;;;45.42;;
23884;SDS011;12123;53.088;7.392;2022-12-18T00:26:56;149.10;;;43.75;;
23884;SDS011;12123;53.088;7.392;2022-12-18T00:29:23;133.85;;;44.35;;
23884;SDS011;12123;53.088;7.392;2022-12-18T00:31:50;131.70;;;41.22;;
23884;SDS011;12123;53.088;7.392;2022-12-18T00:34:17;132.85;;;43.25;;
23884;SDS011;12123;53.088;7.392;2022-12-18T00:36:46;141.50;;;44.47;;
23884;SDS011;12123;53.088;7.392;2022-12-18T00:39:14;116.57;;;40.15;;
23884;SDS011;12123;53.088;7.392;2022-12-18T00:41:41;142.02;;;44.80;;
23884;SDS011;12123;53.088;7.392;2022-12-18T00:44:27;140.07;;;44.88;;
23884;SDS011;12123;53.088;7.392;2022-12-18T00:46:54;147.73;;;41.50;;
23884;SDS011;12123;53.088;7.392;2022-12-18T00:49:21;139.02;;;43.35;;
23884;SDS011;12123;53.088;7.392;2022-12-18T00:51:48;130.05;;;41.78;;
23884;SDS011;12123;53.088;7.392;2022-12-18T00:54:15;123.60;;;39.42;;
23884;SDS011;12123;53.088;7.392;2022-12-18T00:56:43;141.55;;;43.35;;
23884;SDS011;12123;53.088;7.392;2022-12-18T00:59:15;138.07;;;43.65;;
23884;SDS011;12123;53.088;7.392;2022-12-18T01:01:42;129.32;;;42.17;;
23884;SDS011;12123;53.088;7.392;2022-12-18T01:04:10;126.57;;;41.05;;
23884;SDS011;12123;53.088;7.392;2022-12-18T01:06:37;134.02;;;40.75;;
23884;SDS011;12123;53.088;7.392;2022-12-18T01:09:05;134.13;;;42.33;;
23884;SDS011;12123;53.088;7.392;2022-12-18T01:11:32;131.95;;;42.83;;
23884;SDS011;12123;53.088;7.392;2022-12-18T01:13:59;135.55;;;41.55;;
23884;SDS011;12123;53.088;7.392;2022-12-18T01:16:26;132.35;;;41.88;;
23884;SDS011;12123;53.088;7.392;2022-12-18T01:18:54;132.02;;;41.13;;
23884;SDS011;12123;53.088;7.392;2022-12-18T01:21:21;146.52;;;41.42;;
23884;SDS011;12123;53.088;7.392;2022-12-18T01:23:55;135.40;;;42.25;;
23884;SDS011;12123;53.088;7.392;2022-12-18T01:26:23;136.73;;;40.53;;
23884;SDS011;12123;53.088;7.392;2022-12-18T01:28:50;141.57;;;41.25;;
23884;SDS011;12123;53.088;7.392;2022-12-18T01:31:18;129.10;;;38.88;;
23884;SDS011;12123;53.088;7.392;2022-12-18T01:33:47;132.77;;;41.17;;
23884;SDS011;12123;53.088;7.392;2022-12-18T01:36:21;129.88;;;42.15;;
23884;SDS011;12123;53.088;7.392;2022-12-18T01:41:17;123.13;;;41.95;;
23884;SDS011;12123;53.088;7.392;2022-12-18T01:43:54;137.30;;;42.08;;
23884;SDS011;12123;53.088;7.392;2022-12-18T01:46:23;124.85;;;40.92;;
23884;SDS011;12123;53.088;7.392;2022-12-18T01:48:51;131.13;;;40.08;;
23884;SDS011;12123;53.088;7.392;2022-12-18T01:51:19;120.50;;;38.00;;
23884;SDS011;12123;53.088;7.392;2022-12-18T01:53:46;138.93;;;40.97;;
23884;SDS011;12123;53.088;7.392;2022-12-18T01:56:14;120.95;;;39.72;;
23884;SDS011;12123;53.088;7.392;2022-12-18T01:58:50;148.98;;;43.10;;
23884;SDS011;12123;53.088;7.392;2022-12-18T02:01:20;142.63;;;41.08;;
23884;SDS011;12123;53.088;7.392;2022-12-18T02:03:48;134.05;;;40.40;;
23884;SDS011;12123;53.088;7.392;2022-12-18T02:06:16;125.93;;;40.78;;
23884;SDS011;12123;53.088;7.392;2022-12-18T02:08:48;114.30;;;38.83;;
23884;SDS011;12123;53.088;7.392;2022-12-18T02:11:36;119.32;;;40.47;;
23884;SDS011;12123;53.088;7.392;2022-12-18T02:16:41;127.32;;;38.08;;
23884;SDS011;12123;53.088;7.392;2022-12-18T02:19:15;123.03;;;38.88;;
23884;SDS011;12123;53.088;7.392;2022-12-18T02:21:48;127.25;;;36.72;;
23884;SDS011;12123;53.088;7.392;2022-12-18T02:25:02;125.05;;;41.28;;
23884;SDS011;12123;53.088;7.392;2022-12-18T02:27:08;134.68;;;40.95;;
23884;SDS011;12123;53.088;7.392;2022-12-18T02:29:41;125.95;;;39.22;;
23884;SDS011;12123;53.088;7.392;2022-12-18T02:32:13;134.82;;;37.90;;
23884;SDS011;12123;53.088;7.392;2022-12-18T02:34:41;131.10;;;40.30;;
23884;SDS011;12123;53.088;7.392;2022-12-18T02:37:10;135.43;;;41.13;;
23884;SDS011;12123;53.088;7.392;2022-12-18T02:39:40;142.15;;;43.20;;
23884;SDS011;12123;53.088;7.392;2022-12-18T02:42:08;130.27;;;40.95;;
23884;SDS011;12123;53.088;7.392;2022-12-18T02:44:45;137.07;;;40.47;;
23884;SDS011;12123;53.088;7.392;2022-12-18T02:47:13;123.10;;;37.92;;
23884;SDS011;12123;53.088;7.392;2022-12-18T02:50:16;126.60;;;39.75;;
23884;SDS011;12123;53.088;7.392;2022-12-18T02:57:49;124.47;;;39.92;;
23884;SDS011;12123;53.088;7.392;2022-12-18T03:00:30;133.75;;;41.42;;
23884;SDS011;12123;53.088;7.392;2022-12-18T03:03:07;127.78;;;40.35;;
23884;SDS011;12123;53.088;7.392;2022-12-18T03:05:39;120.65;;;37.75;;
23884;SDS011;12123;53.088;7.392;2022-12-18T03:08:08;129.68;;;38.78;;
23884;SDS011;12123;53.088;7.392;2022-12-18T03:10:42;117.88;;;36.95;;
23884;SDS011;12123;53.088;7.392;2022-12-18T03:13:13;118.68;;;38.47;;
23884;SDS011;12123;53.088;7.392;2022-12-18T03:15:42;118.15;;;37.10;;
23884;SDS011;12123;53.088;7.392;2022-12-18T03:18:12;125.45;;;38.53;;
23884;SDS011;12123;53.088;7.392;2022-12-18T03:20:40;126.45;;;38.22;;
23884;SDS011;12123;53.088;7.392;2022-12-18T03:23:11;120.38;;;38.00;;
23884;SDS011;12123;53.088;7.392;2022-12-18T03:25:39;124.60;;;39.00;;
23884;SDS011;12123;53.088;7.392;2022-12-18T03:28:12;114.05;;;36.40;;
23884;SDS011;12123;53.088;7.392;2022-12-18T03:30:41;112.43;;;36.03;;
23884;SDS011;12123;53.088;7.392;2022-12-18T03:33:11;117.30;;;37.00;;
23884;SDS011;12123;53.088;7.392;2022-12-18T03:35:39;116.05;;;36.50;;
23884;SDS011;12123;53.088;7.392;2022-12-18T03:38:07;117.95;;;36.92;;
23884;SDS011;12123;53.088;7.392;2022-12-18T03:43:25;115.32;;;38.25;;
23884;SDS011;12123;53.088;7.392;2022-12-18T03:45:56;111.25;;;37.70;;
23884;SDS011;12123;53.088;7.392;2022-12-18T03:48:29;112.55;;;35.00;;
23884;SDS011;12123;53.088;7.392;2022-12-18T03:51:10;112.65;;;35.15;;
23884;SDS011;12123;53.088;7.392;2022-12-18T03:53:49;114.55;;;35.58;;
23884;SDS011;12123;53.088;7.392;2022-12-18T03:56:18;116.13;;;35.25;;
23884;SDS011;12123;53.088;7.392;2022-12-18T03:58:47;113.18;;;37.35;;
23884;SDS011;12123;53.088;7.392;2022-12-18T04:01:15;112.00;;;35.55;;
23884;SDS011;12123;53.088;7.392;2022-12-18T04:03:43;108.32;;;35.83;;
23884;SDS011;12123;53.088;7.392;2022-12-18T04:06:11;111.18;;;32.38;;
23884;SDS011;12123;53.088;7.392;2022-12-18T04:08:39;115.07;;;35.50;;
23884;SDS011;12123;53.088;7.392;2022-12-18T04:11:06;107.05;;;33.53;;
23884;SDS011;12123;53.088;7.392;2022-12-18T04:13:37;98.88;;;33.88;;
23884;SDS011;12123;53.088;7.392;2022-12-18T04:16:05;110.22;;;33.67;;
23884;SDS011;12123;53.088;7.392;2022-12-18T04:18:32;101.03;;;32.88;;
23884;SDS011;12123;53.088;7.392;2022-12-18T04:20:59;108.25;;;34.13;;
23884;SDS011;12123;53.088;7.392;2022-12-18T04:23:26;103.93;;;34.25;;
23884;SDS011;12123;53.088;7.392;2022-12-18T04:25:54;107.53;;;34.50;;
23884;SDS011;12123;53.088;7.392;2022-12-18T04:28:21;111.13;;;34.60;;
23884;SDS011;12123;53.088;7.392;2022-12-18T04:30:48;100.45;;;33.05;;
23884;SDS011;12123;53.088;7.392;2022-12-18T04:33:15;96.32;;;32.58;;
23884;SDS011;12123;53.088;7.392;2022-12-18T04:35:42;85.50;;;29.52;;
23884;SDS011;12123;53.088;7.392;2022-12-18T04:38:10;95.88;;;31.30;;
23884;SDS011;12123;53.088;7.392;2022-12-18T04:40:37;90.95;;;30.42;;
23884;SDS011;12123;53.088;7.392;2022-12-18T04:43:06;92.80;;;30.92;;
23884;SDS011;12123;53.088;7.392;2022-12-18T04:45:33;95.50;;;30.55;;
23884;SDS011;12123;53.088;7.392;2022-12-18T04:48:01;85.88;;;30.20;;
23884;SDS011;12123;53.088;7.392;2022-12-18T04:50:29;90.18;;;31.15;;
23884;SDS011;12123;53.088;7.392;2022-12-18T04:52:56;82.80;;;31.00;;
23884;SDS011;12123;53.088;7.392;2022-12-18T04:55:23;85.72;;;30.25;;
23884;SDS011;12123;53.088;7.392;2022-12-18T04:57:50;85.63;;;30.40;;
23884;SDS011;12123;53.088;7.392;2022-12-18T05:00:17;89.07;;;29.27;;
23884;SDS011;12123;53.088;7.392;2022-12-18T05:02:44;81.00;;;31.02;;
23884;SDS011;12123;53.088;7.392;2022-12-18T05:05:12;84.60;;;31.15;;
23884;SDS011;12123;53.088;7.392;2022-12-18T05:07:39;83.13;;;29.00;;
23884;SDS011;12123;53.088;7.392;2022-12-18T05:10:06;81.95;;;28.13;;
23884;SDS011;12123;53.088;7.392;2022-12-18T05:12:35;73.07;;;26.55;;
23884;SDS011;12123;53.088;7.392;2022-12-18T05:15:22;81.25;;;30.02;;
23884;SDS011;12123;53.088;7.392;2022-12-18T05:17:49;85.78;;;27.75;;
23884;SDS011;12123;53.088;7.392;2022-12-18T05:20:16;87.57;;;29.55;;
23884;SDS011;12123;53.088;7.392;2022-12-18T05:22:44;86.80;;;30.73;;
23884;SDS011;12123;53.088;7.392;2022-12-18T05:25:12;89.72;;;30.27;;
23884;SDS011;12123;53.088;7.392;2022-12-18T05:27:39;75.93;;;28.92;;
23884;SDS011;12123;53.088;7.392;2022-12-18T05:30:06;71.18;;;27.15;;
23884;SDS011;12123;53.088;7.392;2022-12-18T05:32:34;75.57;;;25.15;;
23884;SDS011;12123;53.088;7.392;2022-12-18T05:35:01;76.90;;;26.67;;
23884;SDS011;12123;53.088;7.392;2022-12-18T05:37:29;69.78;;;26.08;;
23884;SDS011;12123;53.088;7.392;2022-12-18T05:39:56;75.47;;;26.67;;
23884;SDS011;12123;53.088;7.392;2022-12-18T05:42:23;74.15;;;26.75;;
23884;SDS011;12123;53.088;7.392;2022-12-18T05:44:50;77.63;;;25.52;;
23884;SDS011;12123;53.088;7.392;2022-12-18T05:47:17;70.07;;;26.42;;
23884;SDS011;12123;53.088;7.392;2022-12-18T05:49:44;76.95;;;25.77;;
23884;SDS011;12123;53.088;7.392;2022-12-18T05:52:11;73.72;;;25.67;;
23884;SDS011;12123;53.088;7.392;2022-12-18T05:54:38;72.18;;;25.08;;
23884;SDS011;12123;53.088;7.392;2022-12-18T05:57:05;70.60;;;25.30;;
23884;SDS011;12123;53.088;7.392;2022-12-18T05:59:32;61.88;;;26.85;;
23884;SDS011;12123;53.088;7.392;2022-12-18T06:02:00;76.80;;;26.88;;
23884;SDS011;12123;53.088;7.392;2022-12-18T06:04:27;62.35;;;24.08;;
23884;SDS011;12123;53.088;7.392;2022-12-18T06:06:54;64.45;;;22.15;;
23884;SDS011;12123;53.088;7.392;2022-12-18T06:09:22;77.80;;;26.92;;
23884;SDS011;12123;53.088;7.392;2022-12-18T06:11:49;63.08;;;25.77;;
23884;SDS011;12123;53.088;7.392;2022-12-18T06:14:18;63.53;;;26.13;;
23884;SDS011;12123;53.088;7.392;2022-12-18T06:16:45;59.08;;;24.52;;
23884;SDS011;12123;53.088;7.392;2022-12-18T06:19:14;75.30;;;28.48;;
23884;SDS011;12123;53.088;7.392;2022-12-18T06:21:42;64.72;;;22.80;;
23884;SDS011;12123;53.088;7.392;2022-12-18T06:24:09;62.67;;;25.92;;
23884;SDS011;12123;53.088;7.392;2022-12-18T06:26:37;64.40;;;25.38;;
23884;SDS011;12123;53.088;7.392;2022-12-18T06:29:05;73.97;;;27.83;;
23884;SDS011;12123;53.088;7.392;2022-12-18T06:31:32;69.60;;;27.48;;
23884;SDS011;12123;53.088;7.392;2022-12-18T06:34:01;68.28;;;26.27;;
23884;SDS011;12123;53.088;7.392;2022-12-18T06:36:29;69.03;;;24.88;;
23884;SDS011;12123;53.088;7.392;2022-12-18T06:38:56;65.00;;;25.05;;
23884;SDS011;12123;53.088;7.392;2022-12-18T06:41:24;63.10;;;25.75;;
23884;SDS011;12123;53.088;7.392;2022-12-18T06:43:51;64.97;;;24.98;;
23884;SDS011;12123;53.088;7.392;2022-12-18T06:46:24;71.82;;;25.05;;
23884;SDS011;12123;53.088;7.392;2022-12-18T06:48:51;66.25;;;26.42;;
23884;SDS011;12123;53.088;7.392;2022-12-18T06:51:19;68.65;;;25.13;;
23884;SDS011;12123;53.088;7.392;2022-12-18T06:53:47;59.92;;;24.83;;
23884;SDS011;12123;53.088;7.392;2022-12-18T06:56:14;71.93;;;24.63;;
23884;SDS011;12123;53.088;7.392;2022-12-18T06:58:41;63.42;;;24.05;;
23884;SDS011;12123;53.088;7.392;2022-12-18T07:01:09;65.10;;;25.80;;
23884;SDS011;12123;53.088;7.392;2022-12-18T07:03:40;70.43;;;25.58;;
23884;SDS011;12123;53.088;7.392;2022-12-18T07:06:18;68.13;;;25.13;;
23884;SDS011;12123;53.088;7.392;2022-12-18T07:08:46;58.40;;;24.98;;
23884;SDS011;12123;53.088;7.392;2022-12-18T07:11:13;74.32;;;26.90;;
23884;SDS011;12123;53.088;7.392;2022-12-18T07:13:40;70.22;;;26.23;;
23884;SDS011;12123;53.088;7.392;2022-12-18T07:16:09;71.63;;;27.17;;
23884;SDS011;12123;53.088;7.392;2022-12-18T07:18:47;66.45;;;25.50;;
23884;SDS011;12123;53.088;7.392;2022-12-18T07:21:16;65.00;;;26.92;;
23884;SDS011;12123;53.088;7.392;2022-12-18T07:23:44;64.28;;;25.67;;
23884;SDS011;12123;53.088;7.392;2022-12-18T07:26:14;61.25;;;26.38;;
23884;SDS011;12123;53.088;7.392;2022-12-18T07:28:41;61.50;;;25.10;;
23884;SDS011;12123;53.088;7.392;2022-12-18T07:31:19;60.25;;;24.52;;
23884;SDS011;12123;53.088;7.392;2022-12-18T07:33:47;74.82;;;27.23;;
23884;SDS011;12123;53.088;7.392;2022-12-18T07:36:14;59.40;;;23.83;;
23884;SDS011;12123;53.088;7.392;2022-12-18T07:38:41;62.65;;;22.65;;
23884;SDS011;12123;53.088;7.392;2022-12-18T07:41:10;56.22;;;23.98;;
23884;SDS011;12123;53.088;7.392;2022-12-18T07:43:38;50.80;;;23.02;;
23884;SDS011;12123;53.088;7.392;2022-12-18T07:46:07;54.83;;;22.58;;
23884;SDS011;12123;53.088;7.392;2022-12-18T07:48:34;59.35;;;23.75;;
23884;SDS011;12123;53.088;7.392;2022-12-18T07:51:02;64.20;;;24.42;;
23884;SDS011;12123;53.088;7.392;2022-12-18T07:53:30;60.92;;;24.98;;
23884;SDS011;12123;53.088;7.392;2022-12-18T07:56:01;63.13;;;24.23;;
23884;SDS011;12123;53.088;7.392;2022-12-18T07:58:48;65.65;;;23.90;;
23884;SDS011;12123;53.088;7.392;2022-12-18T08:01:15;58.70;;;22.70;;
23884;SDS011;12123;53.088;7.392;2022-12-18T08:03:43;72.53;;;24.58;;
23884;SDS011;12123;53.088;7.392;2022-12-18T08:06:10;61.65;;;24.65;;
23884;SDS011;12123;53.088;7.392;2022-12-18T08:08:37;63.55;;;25.80;;
23884;SDS011;12123;53.088;7.392;2022-12-18T08:11:06;54.78;;;24.05;;
23884;SDS011;12123;53.088;7.392;2022-12-18T08:13:33;65.32;;;24.55;;
23884;SDS011;12123;53.088;7.392;2022-12-18T08:16:04;55.15;;;23.95;;
23884;SDS011;12123;53.088;7.392;2022-12-18T08:18:35;58.90;;;23.80;;
23884;SDS011;12123;53.088;7.392;2022-12-18T08:21:13;53.78;;;21.70;;
23884;SDS011;12123;53.088;7.392;2022-12-18T08:23:41;47.65;;;20.85;;
23884;SDS011;12123;53.088;7.392;2022-12-18T08:26:09;54.30;;;22.02;;
23884;SDS011;12123;53.088;7.392;2022-12-18T08:28:40;50.67;;;20.50;;
23884;SDS011;12123;53.088;7.392;2022-12-18T08:31:07;45.78;;;20.40;;
23884;SDS011;12123;53.088;7.392;2022-12-18T08:33:35;49.58;;;19.10;;
23884;SDS011;12123;53.088;7.392;2022-12-18T08:36:04;57.83;;;19.90;;
23884;SDS011;12123;53.088;7.392;2022-12-18T08:38:32;42.58;;;19.13;;
23884;SDS011;12123;53.088;7.392;2022-12-18T08:41:04;54.30;;;18.98;;
23884;SDS011;12123;53.088;7.392;2022-12-18T08:43:31;43.88;;;17.98;;
23884;SDS011;12123;53.088;7.392;2022-12-18T08:46:18;42.90;;;18.30;;
23884;SDS011;12123;53.088;7.392;2022-12-18T08:48:46;42.40;;;18.45;;
23884;SDS011;12123;53.088;7.392;2022-12-18T08:51:13;38.35;;;18.35;;
23884;SDS011;12123;53.088;7.392;2022-12-18T08:53:42;52.88;;;19.98;;
23884;SDS011;12123;53.088;7.392;2022-12-18T08:56:10;51.35;;;18.55;;
23884;SDS011;12123;53.088;7.392;2022-12-18T08:58:38;39.03;;;17.23;;
23884;SDS011;12123;53.088;7.392;2022-12-18T09:01:06;44.67;;;18.15;;
23884;SDS011;12123;53.088;7.392;2022-12-18T09:03:37;36.38;;;16.08;;
23884;SDS011;12123;53.088;7.392;2022-12-18T09:06:05;38.92;;;17.42;;
23884;SDS011;12123;53.088;7.392;2022-12-18T09:08:35;39.10;;;16.65;;
23884;SDS011;12123;53.088;7.392;2022-12-18T09:11:10;39.15;;;17.48;;
23884;SDS011;12123;53.088;7.392;2022-12-18T09:13:38;36.38;;;17.17;;
23884;SDS011;12123;53.088;7.392;2022-12-18T09:16:06;37.78;;;15.55;;
23884;SDS011;12123;53.088;7.392;2022-12-18T09:18:33;31.85;;;14.38;;
23884;SDS011;12123;53.088;7.392;2022-12-18T09:21:06;35.83;;;16.15;;
23884;SDS011;12123;53.088;7.392;2022-12-18T09:23:34;34.13;;;15.25;;
23884;SDS011;12123;53.088;7.392;2022-12-18T09:26:01;39.38;;;16.55;;
23884;SDS011;12123;53.088;7.392;2022-12-18T09:28:28;28.23;;;14.07;;
23884;SDS011;12123;53.088;7.392;2022-12-18T09:30:55;31.92;;;14.73;;
23884;SDS011;12123;53.088;7.392;2022-12-18T09:33:22;31.90;;;14.18;;
23884;SDS011;12123;53.088;7.392;2022-12-18T09:35:50;33.25;;;14.00;;
23884;SDS011;12123;53.088;7.392;2022-12-18T09:38:18;26.23;;;13.35;;
23884;SDS011;12123;53.088;7.392;2022-12-18T09:40:47;29.88;;;13.75;;
23884;SDS011;12123;53.088;7.392;2022-12-18T09:43:58;27.42;;;12.77;;
23884;SDS011;12123;53.088;7.392;2022-12-18T09:46:06;40.78;;;13.43;;
23884;SDS011;12123;53.088;7.392;2022-12-18T09:48:35;27.83;;;12.93;;
23884;SDS011;12123;53.088;7.392;2022-12-18T09:51:11;30.90;;;13.07;;
23884;SDS011;12123;53.088;7.392;2022-12-18T09:53:38;25.88;;;11.60;;
23884;SDS011;12123;53.088;7.392;2022-12-18T09:56:10;27.20;;;12.98;;
23884;SDS011;12123;53.088;7.392;2022-12-18T10:01:11;26.10;;;12.15;;
23884;SDS011;12123;53.088;7.392;2022-12-18T10:03:39;22.85;;;11.43;;
23884;SDS011;12123;53.088;7.392;2022-12-18T10:08:35;26.88;;;12.32;;
23884;SDS011;12123;53.088;7.392;2022-12-18T10:13:39;23.85;;;12.20;;
23884;SDS011;12123;53.088;7.392;2022-12-18T10:16:16;25.63;;;12.73;;
23884;SDS011;12123;53.088;7.392;2022-12-18T10:21:24;28.30;;;12.75;;
23884;SDS011;12123;53.088;7.392;2022-12-18T10:26:25;25.15;;;12.75;;
23884;SDS011;12123;53.088;7.392;2022-12-18T10:28:52;26.98;;;12.85;;
23884;SDS011;12123;53.088;7.392;2022-12-18T10:31:21;27.95;;;13.13;;
23884;SDS011;12123;53.088;7.392;2022-12-18T10:33:50;26.63;;;12.73;;
23884;SDS011;12123;53.088;7.392;2022-12-18T10:36:17;23.80;;;11.82;;
23884;SDS011;12123;53.088;7.392;2022-12-18T10:38:44;26.65;;;12.23;;
23884;SDS011;12123;53.088;7.392;2022-12-18T10:43:51;30.75;;;11.38;;
23884;SDS011;12123;53.088;7.392;2022-12-18T10:46:36;21.67;;;11.38;;
23884;SDS011;12123;53.088;7.392;2022-12-18T10:49:03;22.85;;;11.43;;
23884;SDS011;12123;53.088;7.392;2022-12-18T10:51:34;21.08;;;10.85;;
23884;SDS011;12123;53.088;7.392;2022-12-18T10:54:04;22.20;;;10.57;;
23884;SDS011;12123;53.088;7.392;2022-12-18T10:56:33;21.45;;;10.88;;
23884;SDS011;12123;53.088;7.392;2022-12-18T10:59:02;19.10;;;10.27;;
23884;SDS011;12123;53.088;7.392;2022-12-18T11:04:18;21.55;;;10.10;;
23884;SDS011;12123;53.088;7.392;2022-12-18T11:06:59;22.95;;;10.70;;
23884;SDS011;12123;53.088;7.392;2022-12-18T11:09:27;15.02;;;8.95;;
23884;SDS011;12123;53.088;7.392;2022-12-18T11:11:58;25.27;;;10.15;;
23884;SDS011;12123;53.088;7.392;2022-12-18T11:16:53;18.13;;;10.15;;
23884;SDS011;12123;53.088;7.392;2022-12-18T11:19:41;19.42;;;9.75;;
23884;SDS011;12123;53.088;7.392;2022-12-18T11:25:04;23.52;;;10.73;;
23884;SDS011;12123;53.088;7.392;2022-12-18T11:27:53;24.67;;;11.50;;
23884;SDS011;12123;53.088;7.392;2022-12-18T11:30:22;21.08;;;10.68;;
23884;SDS011;12123;53.088;7.392;2022-12-18T11:32:54;19.88;;;10.98;;
23884;SDS011;12123;53.088;7.392;2022-12-18T11:37:57;21.42;;;10.65;;
23884;SDS011;12123;53.088;7.392;2022-12-18T11:40:38;21.65;;;11.60;;
23884;SDS011;12123;53.088;7.392;2022-12-18T11:45:34;27.67;;;13.15;;
23884;SDS011;12123;53.088;7.392;2022-12-18T11:48:05;25.42;;;11.02;;
23884;SDS011;12123;53.088;7.392;2022-12-18T11:53:02;24.67;;;12.43;;
23884;SDS011;12123;53.088;7.392;2022-12-18T11:55:53;23.25;;;11.68;;
23884;SDS011;12123;53.088;7.392;2022-12-18T11:58:29;23.40;;;11.40;;
23884;SDS011;12123;53.088;7.392;2022-12-18T12:06:15;23.33;;;11.30;;
23884;SDS011;12123;53.088;7.392;2022-12-18T12:21:25;27.65;;;12.70;;
23884;SDS011;12123;53.088;7.392;2022-12-18T12:24:05;24.50;;;11.68;;
23884;SDS011;12123;53.088;7.392;2022-12-18T12:26:54;24.02;;;11.90;;
23884;SDS011;12123;53.088;7.392;2022-12-18T12:37:12;22.67;;;12.02;;
23884;SDS011;12123;53.088;7.392;2022-12-18T12:39:44;27.50;;;12.07;;
23884;SDS011;12123;53.088;7.392;2022-12-18T12:42:20;21.17;;;11.43;;
23884;SDS011;12123;53.088;7.392;2022-12-18T12:45:13;27.08;;;12.52;;
23884;SDS011;12123;53.088;7.392;2022-12-18T12:47:42;21.67;;;10.68;;
23884;SDS011;12123;53.088;7.392;2022-12-18T12:50:16;20.23;;;11.02;;
23884;SDS011;12123;53.088;7.392;2022-12-18T12:52:45;26.50;;;11.60;;
23884;SDS011;12123;53.088;7.392;2022-12-18T12:55:17;24.17;;;11.13;;
23884;SDS011;12123;53.088;7.392;2022-12-18T12:57:53;23.83;;;11.77;;
23884;SDS011;12123;53.088;7.392;2022-12-18T13:00:21;27.38;;;13.02;;
23884;SDS011;12123;53.088;7.392;2022-12-18T13:03:12;25.63;;;12.68;;
23884;SDS011;12123;53.088;7.392;2022-12-18T13:05:46;27.85;;;12.60;;
23884;SDS011;12123;53.088;7.392;2022-12-18T13:08:25;27.65;;;12.35;;
23884;SDS011;12123;53.088;7.392;2022-12-18T13:10:59;25.00;;;11.88;;
23884;SDS011;12123;53.088;7.392;2022-12-18T13:13:49;20.73;;;11.05;;
23884;SDS011;12123;53.088;7.392;2022-12-18T13:16:20;22.77;;;11.23;;
23884;SDS011;12123;53.088;7.392;2022-12-18T13:18:48;26.00;;;11.18;;
23884;SDS011;12123;53.088;7.392;2022-12-18T13:21:29;23.42;;;11.80;;
23884;SDS011;12123;53.088;7.392;2022-12-18T13:23:57;21.60;;;11.68;;
23884;SDS011;12123;53.088;7.392;2022-12-18T13:26:41;25.27;;;11.45;;
23884;SDS011;12123;53.088;7.392;2022-12-18T13:29:08;25.45;;;11.75;;
23884;SDS011;12123;53.088;7.392;2022-12-18T13:34:14;23.63;;;11.90;;
23884;SDS011;12123;53.088;7.392;2022-12-18T13:36:52;23.80;;;11.70;;
23884;SDS011;12123;53.088;7.392;2022-12-18T13:44:35;25.92;;;12.05;;
23884;SDS011;12123;53.088;7.392;2022-12-18T13:49:53;28.27;;;12.02;;
23884;SDS011;12123;53.088;7.392;2022-12-18T13:52:26;23.05;;;12.02;;
23884;SDS011;12123;53.088;7.392;2022-12-18T13:54:55;23.13;;;11.60;;
23884;SDS011;12123;53.088;7.392;2022-12-18T13:57:30;28.55;;;13.00;;
23884;SDS011;12123;53.088;7.392;2022-12-18T13:59:58;22.35;;;11.77;;
23884;SDS011;12123;53.088;7.392;2022-12-18T14:02:27;28.50;;;12.30;;
23884;SDS011;12123;53.088;7.392;2022-12-18T14:04:55;27.23;;;11.57;;
23884;SDS011;12123;53.088;7.392;2022-12-18T14:07:23;23.17;;;11.82;;
23884;SDS011;12123;53.088;7.392;2022-12-18T14:09:52;24.80;;;11.32;;
23884;SDS011;12123;53.088;7.392;2022-12-18T14:12:31;24.08;;;12.10;;
23884;SDS011;12123;53.088;7.392;2022-12-18T14:20:34;28.95;;;13.02;;
23884;SDS011;12123;53.088;7.392;2022-12-18T14:23:01;29.67;;;14.38;;
23884;SDS011;12123;53.088;7.392;2022-12-18T14:25:30;21.77;;;11.60;;
23884;SDS011;12123;53.088;7.392;2022-12-18T14:30:40;27.10;;;12.00;;
23884;SDS011;12123;53.088;7.392;2022-12-18T14:33:13;23.08;;;11.38;;
23884;SDS011;12123;53.088;7.392;2022-12-18T14:38:22;22.73;;;11.00;;
23884;SDS011;12123;53.088;7.392;2022-12-18T14:41:32;24.00;;;10.88;;
23884;SDS011;12123;53.088;7.392;2022-12-18T14:43:40;24.05;;;11.35;;
23884;SDS011;12123;53.088;7.392;2022-12-18T14:48:54;22.60;;;11.02;;
23884;SDS011;12123;53.088;7.392;2022-12-18T14:51:22;26.55;;;11.70;;
23884;SDS011;12123;53.088;7.392;2022-12-18T15:01:33;20.38;;;11.05;;
23884;SDS011;12123;53.088;7.392;2022-12-18T15:04:02;23.10;;;10.75;;
23884;SDS011;12123;53.088;7.392;2022-12-18T15:06:31;21.88;;;11.52;;
23884;SDS011;12123;53.088;7.392;2022-12-18T15:08:59;26.63;;;12.05;;
23884;SDS011;12123;53.088;7.392;2022-12-18T15:13:54;23.85;;;11.07;;
23884;SDS011;12123;53.088;7.392;2022-12-18T15:16:21;25.48;;;9.40;;
23884;SDS011;12123;53.088;7.392;2022-12-18T15:18:48;26.42;;;11.65;;
23884;SDS011;12123;53.088;7.392;2022-12-18T15:21:19;20.58;;;10.90;;
23884;SDS011;12123;53.088;7.392;2022-12-18T15:23:52;20.92;;;10.80;;
23884;SDS011;12123;53.088;7.392;2022-12-18T15:26:22;20.05;;;10.27;;
23884;SDS011;12123;53.088;7.392;2022-12-18T15:36:18;18.90;;;10.07;;
23884;SDS011;12123;53.088;7.392;2022-12-18T15:38:52;19.42;;;10.00;;
23884;SDS011;12123;53.088;7.392;2022-12-18T15:41:21;20.00;;;9.85;;
23884;SDS011;12123;53.088;7.392;2022-12-18T15:43:52;21.25;;;9.82;;
23884;SDS011;12123;53.088;7.392;2022-12-18T15:46:22;18.27;;;9.32;;
23884;SDS011;12123;53.088;7.392;2022-12-18T15:48:50;18.63;;;9.93;;
23884;SDS011;12123;53.088;7.392;2022-12-18T15:51:37;19.67;;;9.38;;
23884;SDS011;12123;53.088;7.392;2022-12-18T15:54:05;19.92;;;9.40;;
23884;SDS011;12123;53.088;7.392;2022-12-18T15:56:33;19.27;;;9.27;;
23884;SDS011;12123;53.088;7.392;2022-12-18T15:59:19;20.55;;;9.60;;
23884;SDS011;12123;53.088;7.392;2022-12-18T16:01:48;16.88;;;9.30;;
23884;SDS011;12123;53.088;7.392;2022-12-18T16:04:17;18.73;;;9.27;;
23884;SDS011;12123;53.088;7.392;2022-12-18T16:06:46;19.58;;;8.82;;
23884;SDS011;12123;53.088;7.392;2022-12-18T16:09:34;17.65;;;8.35;;
23884;SDS011;12123;53.088;7.392;2022-12-18T16:12:01;19.05;;;9.70;;
23884;SDS011;12123;53.088;7.392;2022-12-18T16:14:29;20.38;;;10.23;;
23884;SDS011;12123;53.088;7.392;2022-12-18T16:16:59;22.55;;;9.75;;
23884;SDS011;12123;53.088;7.392;2022-12-18T16:19:27;16.08;;;8.80;;
23884;SDS011;12123;53.088;7.392;2022-12-18T16:21:55;17.38;;;8.70;;
23884;SDS011;12123;53.088;7.392;2022-12-18T16:24:26;15.43;;;8.30;;
23884;SDS011;12123;53.088;7.392;2022-12-18T16:26:56;17.55;;;8.48;;
23884;SDS011;12123;53.088;7.392;2022-12-18T16:29:25;18.13;;;7.82;;